createdAt,value
2019-05-15T00:00:50.793Z,103272.05
2019-05-15T00:03:21.261Z,103264.23
2019-05-15T00:05:50.727Z,103260.81
2019-05-15T00:08:20.468Z,103256.51
2019-05-15T00:10:49.985Z,103257.06
2019-05-15T00:13:19.414Z,103260.92
2019-05-15T00:15:48.885Z,103258.83
2019-05-15T00:18:18.650Z,103258.40
2019-05-15T00:20:49.711Z,103258.40
2019-05-15T00:23:19.413Z,103251.00
2019-05-15T00:25:48.965Z,103247.44
2019-05-15T00:28:18.687Z,103250.41
2019-05-15T00:30:48.316Z,103245.46
2019-05-15T00:33:19.387Z,103244.94
2019-05-15T00:35:49.003Z,103240.94
2019-05-15T00:38:18.807Z,103245.14
2019-05-15T00:40:49.634Z,103244.13
2019-05-15T00:43:19.212Z,103234.95
2019-05-15T00:45:48.949Z,103241.95
2019-05-15T00:48:18.777Z,103238.41
2019-05-15T00:50:48.650Z,103235.36
2019-05-15T00:53:19.651Z,103242.30
2019-05-15T00:55:49.261Z,103238.82
2019-05-15T00:58:19.906Z,103236.11
2019-05-15T01:00:49.657Z,103231.95
2019-05-15T01:03:20.008Z,103233.18
2019-05-15T01:05:49.580Z,103233.89
2019-05-15T01:08:19.408Z,103227.88
2019-05-15T01:10:49.195Z,103225.66
2019-05-15T01:13:19.097Z,103217.86
2019-05-15T01:15:49.113Z,103217.88
2019-05-15T01:18:18.942Z,103221.33
2019-05-15T01:20:49.384Z,103217.88
2019-05-15T01:23:18.960Z,103217.31
2019-05-15T01:25:48.416Z,103212.61
2019-05-15T01:28:18.420Z,103214.64
2019-05-15T01:30:48.715Z,103207.74
2019-05-15T01:33:18.962Z,103203.37
2019-05-15T01:35:50.153Z,103205.02
2019-05-15T01:38:19.552Z,103203.56
2019-05-15T01:40:48.996Z,103198.22
2019-05-15T01:43:18.833Z,103201.23
2019-05-15T01:45:48.584Z,103205.98
2019-05-15T01:48:19.520Z,103200.76
2019-05-15T01:50:49.492Z,103196.05
2019-05-15T01:53:19.093Z,103193.13
2019-05-15T01:55:48.618Z,103189.14
2019-05-15T01:58:19.080Z,103190.52
2019-05-15T02:00:48.661Z,103192.15
2019-05-15T02:03:18.522Z,103204.64
2019-05-15T02:05:48.306Z,103197.16
2019-05-15T02:08:19.135Z,103201.77
2019-05-15T02:10:49.473Z,103195.97
2019-05-15T02:13:19.134Z,103198.97
2019-05-15T02:15:48.577Z,103195.05
2019-05-15T02:18:19.120Z,103191.92
2019-05-15T02:20:49.508Z,103193.30
2019-05-15T02:23:19.176Z,103198.81
2019-05-15T02:25:48.776Z,103190.81
2019-05-15T02:28:18.540Z,103193.70
2019-05-15T02:30:50.475Z,103191.29
2019-05-15T02:33:19.265Z,103197.76
2019-05-15T02:35:50.163Z,103192.28
2019-05-15T02:38:20.349Z,103194.37
2019-05-15T02:40:49.863Z,103188.14
2019-05-15T02:43:19.455Z,103187.17
2019-05-15T02:45:50.837Z,103189.73
2019-05-15T02:48:20.216Z,103187.95
2019-05-15T02:50:50.286Z,103190.10
2019-05-15T02:53:20.039Z,103192.48
2019-05-15T02:55:49.815Z,103186.81
2019-05-15T02:58:21.156Z,103190.27
2019-05-15T03:00:53.511Z,103191.11
2019-05-15T03:03:23.288Z,103188.96
2019-05-15T03:05:55.818Z,103186.79
2019-05-15T03:08:25.389Z,103191.56
2019-05-15T03:10:54.896Z,103187.19
2019-05-15T03:13:24.485Z,103178.95
2019-05-15T03:15:53.990Z,103183.27
2019-05-15T03:18:23.642Z,103185.04
2019-05-15T03:20:53.232Z,103187.16
2019-05-15T03:23:22.715Z,103187.96
2019-05-15T03:25:52.294Z,103189.50
2019-05-15T03:28:21.696Z,103189.34
2019-05-15T03:31:14.831Z,103187.59
2019-05-15T03:33:27.802Z,103188.44
2019-05-15T03:35:54.958Z,103191.91
2019-05-15T03:38:24.678Z,103184.09
2019-05-15T03:40:54.148Z,103181.89
2019-05-15T03:43:23.585Z,103186.69
2019-05-15T03:45:53.034Z,103189.05
2019-05-15T03:48:22.617Z,103187.36
2019-05-15T03:50:52.112Z,103184.80
2019-05-15T03:53:21.614Z,103180.97
2019-05-15T03:55:51.080Z,103180.52
2019-05-15T03:58:21.627Z,103180.94
2019-05-15T04:00:51.378Z,103178.85
2019-05-15T04:03:21.102Z,103177.55
2019-05-15T04:05:50.631Z,103174.95
2019-05-15T04:08:20.208Z,103174.59
2019-05-15T04:10:49.641Z,103181.00
2019-05-15T04:13:20.013Z,103179.30
2019-05-15T04:15:50.369Z,103180.30
2019-05-15T04:18:20.237Z,103183.02
2019-05-15T04:20:49.822Z,103185.36
2019-05-15T04:23:23.641Z,103186.84
2019-05-15T04:25:53.867Z,103187.38
2019-05-15T04:28:23.313Z,103180.17
2019-05-15T04:30:52.755Z,103187.67
2019-05-15T04:33:22.271Z,103184.82
2019-05-15T04:35:51.984Z,103185.11
2019-05-15T04:38:21.498Z,103178.90
2019-05-15T04:40:50.946Z,103181.77
2019-05-15T04:43:20.481Z,103181.61
2019-05-15T04:45:50.009Z,103183.94
2019-05-15T04:48:20.169Z,103182.83
2019-05-15T04:50:50.023Z,103186.50
2019-05-15T04:53:20.310Z,103184.09
2019-05-15T04:55:49.763Z,103186.05
2019-05-15T04:58:20.781Z,103188.45
2019-05-15T05:00:54.584Z,103181.27
2019-05-15T05:03:24.162Z,103184.55
2019-05-15T05:05:53.721Z,103177.83
2019-05-15T05:08:23.231Z,103190.69
2019-05-15T05:10:52.786Z,103187.47
2019-05-15T05:13:22.236Z,103180.72
2019-05-15T05:15:51.749Z,103180.89
2019-05-15T05:18:21.185Z,103191.05
2019-05-15T05:20:52.187Z,103186.39
2019-05-15T05:23:21.625Z,103187.36
2019-05-15T05:25:51.076Z,103192.28
2019-05-15T05:28:22.028Z,103194.55
2019-05-15T05:30:51.649Z,103197.66
2019-05-15T05:33:21.130Z,103198.66
2019-05-15T05:35:50.693Z,103201.33
2019-05-15T05:38:20.445Z,103198.73
2019-05-15T05:40:50.453Z,103194.00
2019-05-15T05:43:20.599Z,103191.40
2019-05-15T05:45:50.058Z,103187.05
2019-05-15T05:48:19.556Z,103192.28
2019-05-15T05:50:49.858Z,103194.89
2019-05-15T05:53:21.315Z,103198.36
2019-05-15T05:55:53.387Z,103191.81
2019-05-15T05:58:22.352Z,103196.17
2019-05-15T06:00:52.923Z,103204.02
2019-05-15T06:03:22.332Z,103195.69
2019-05-15T06:05:51.940Z,103200.02
2019-05-15T06:08:21.418Z,103202.63
2019-05-15T06:10:50.937Z,103201.24
2019-05-15T06:13:20.359Z,103192.91
2019-05-15T06:15:49.790Z,103201.23
2019-05-15T06:18:20.007Z,103190.67
2019-05-15T06:20:50.128Z,103192.86
2019-05-15T06:23:24.565Z,103200.14
2019-05-15T06:25:51.549Z,103199.70
2019-05-15T06:28:21.039Z,103197.14
2019-05-15T06:30:50.733Z,103197.84
2019-05-15T06:33:20.206Z,103201.39
2019-05-15T06:35:49.673Z,103198.59
2019-05-15T06:38:19.810Z,103203.05
2019-05-15T06:40:50.301Z,103199.03
2019-05-15T06:43:19.853Z,103198.99
2019-05-15T06:45:49.500Z,103203.78
2019-05-15T06:48:19.181Z,103206.77
2019-05-15T06:50:49.393Z,103205.44
2019-05-15T06:53:19.696Z,103205.36
2019-05-15T06:55:49.349Z,103206.55
2019-05-15T06:58:19.796Z,103203.38
2019-05-15T07:00:49.886Z,103200.78
2019-05-15T07:03:25.281Z,103206.02
2019-05-15T07:05:51.207Z,103205.81
2019-05-15T07:08:20.863Z,103207.30
2019-05-15T07:10:50.290Z,103208.05
2019-05-15T07:13:19.727Z,103207.95
2019-05-15T07:15:49.860Z,103205.08
2019-05-15T07:18:20.047Z,103200.95
2019-05-15T07:20:49.845Z,103199.73
2019-05-15T07:23:19.533Z,103205.48
2019-05-15T07:25:50.139Z,103202.23
2019-05-15T07:28:19.746Z,103200.80
2019-05-15T07:30:49.783Z,103195.75
2019-05-15T07:33:35.296Z,103195.44
2019-05-15T07:35:50.637Z,103192.71
2019-05-15T07:38:20.116Z,103192.45
2019-05-15T07:40:57.307Z,103188.98
2019-05-15T07:43:20.846Z,103186.80
2019-05-15T07:45:54.841Z,103193.48
2019-05-15T07:48:24.562Z,103188.81
2019-05-15T07:50:54.780Z,103191.90
2019-05-15T07:53:24.232Z,103191.20
2019-05-15T07:55:53.721Z,103192.91
2019-05-15T07:58:23.178Z,103190.84
2019-05-15T08:00:54.144Z,103194.25
2019-05-15T08:03:23.752Z,103186.60
2019-05-15T08:05:59.111Z,103181.72
2019-05-15T08:08:24.399Z,103184.73
2019-05-15T08:10:53.933Z,103182.35
2019-05-15T08:13:23.441Z,103182.94
2019-05-15T08:15:52.890Z,103174.29
2019-05-15T08:18:22.339Z,103170.75
2019-05-15T08:20:51.816Z,103175.66
2019-05-15T08:23:21.411Z,103174.66
2019-05-15T08:25:50.821Z,103178.01
2019-05-15T08:28:20.264Z,103177.43
2019-05-15T08:30:51.143Z,103179.51
2019-05-15T08:33:20.578Z,103170.02
2019-05-15T08:35:51.832Z,103167.72
2019-05-15T08:38:21.198Z,103163.16
2019-05-15T08:40:51.020Z,103165.50
2019-05-15T08:43:20.508Z,103160.48
2019-05-15T08:45:51.311Z,103160.50
2019-05-15T08:48:22.223Z,103157.33
2019-05-15T08:50:51.725Z,103156.84
2019-05-15T08:53:21.350Z,103150.73
2019-05-15T08:55:50.789Z,103151.35
2019-05-15T08:58:20.841Z,103147.23
2019-05-15T09:00:52.448Z,103149.04
2019-05-15T09:03:22.723Z,103151.06
2019-05-15T09:05:52.136Z,103145.44
2019-05-15T09:08:21.819Z,103147.99
2019-05-15T09:10:51.224Z,103142.77
2019-05-15T09:13:20.731Z,103140.95
2019-05-15T09:15:50.289Z,103138.21
2019-05-15T09:18:20.541Z,103141.31
2019-05-15T09:20:50.228Z,103137.16
2019-05-15T09:23:20.259Z,103132.41
2019-05-15T09:25:50.046Z,103131.59
2019-05-15T09:28:19.754Z,103127.59
2019-05-15T09:30:49.508Z,103124.58
2019-05-15T09:33:20.124Z,103126.97
2019-05-15T09:35:49.840Z,103129.83
2019-05-15T09:38:19.287Z,103123.97
2019-05-15T09:40:51.059Z,103125.30
2019-05-15T09:43:20.399Z,103115.44
2019-05-15T09:45:49.872Z,103114.53
2019-05-15T09:48:20.211Z,103114.53
2019-05-15T09:50:49.889Z,103105.59
2019-05-15T09:53:19.546Z,103099.32
2019-05-15T09:55:49.938Z,103093.52
2019-05-15T09:58:21.027Z,103094.02
2019-05-15T10:00:53.045Z,103097.98
2019-05-15T10:03:22.095Z,103087.84
2019-05-15T10:05:51.528Z,103098.39
2019-05-15T10:08:21.633Z,103088.59
2019-05-15T10:10:52.590Z,103083.30
2019-05-15T10:13:22.069Z,103083.80
2019-05-15T10:15:51.521Z,103079.59
2019-05-15T10:18:20.994Z,103083.74
2019-05-15T10:20:50.502Z,103084.18
2019-05-15T10:23:20.157Z,103079.86
2019-05-15T10:25:50.238Z,103075.34
2019-05-15T10:28:21.311Z,103074.41
2019-05-15T10:30:50.877Z,103069.70
2019-05-15T10:33:20.655Z,103063.58
2019-05-15T10:35:50.278Z,103068.31
2019-05-15T10:38:19.845Z,103061.49
2019-05-15T10:41:03.622Z,103063.58
2019-05-15T10:43:21.174Z,103054.19
2019-05-15T10:45:54.468Z,103062.37
2019-05-15T10:48:21.813Z,103048.05
2019-05-15T10:50:51.364Z,103043.81
2019-05-15T10:53:21.009Z,103043.81
2019-05-15T10:55:50.467Z,103045.94
2019-05-15T10:58:21.894Z,103045.92
2019-05-15T11:00:51.131Z,103046.32
2019-05-15T11:03:20.768Z,103042.89
2019-05-15T11:05:50.235Z,103043.48
2019-05-15T11:08:19.673Z,103033.27
2019-05-15T11:10:49.803Z,103039.23
2019-05-15T11:13:19.503Z,103035.71
2019-05-15T11:15:49.547Z,103024.77
2019-05-15T11:18:19.286Z,103024.77
2019-05-15T11:20:49.128Z,103023.05
2019-05-15T11:23:20.542Z,103031.02
2019-05-15T11:25:50.049Z,103018.20
2019-05-15T11:28:19.454Z,103028.56
2019-05-15T11:30:49.372Z,103023.48
2019-05-15T11:33:19.409Z,103018.75
2019-05-15T11:36:00.952Z,103013.06
2019-05-15T11:38:24.352Z,103013.06
2019-05-15T11:40:53.970Z,103011.63
2019-05-15T11:43:23.382Z,103011.20
2019-05-15T11:45:52.909Z,103014.95
2019-05-15T11:48:22.458Z,103014.95
2019-05-15T11:50:53.524Z,103009.59
2019-05-15T11:53:23.058Z,103005.31
2019-05-15T11:55:52.445Z,103008.12
2019-05-15T11:58:21.972Z,103008.09
2019-05-15T12:00:51.454Z,102994.20
2019-05-15T12:03:24.601Z,103007.98
2019-05-15T12:05:52.089Z,102988.38
2019-05-15T12:08:21.540Z,102988.38
2019-05-15T12:10:50.942Z,102989.01
2019-05-15T12:13:20.498Z,102989.23
2019-05-15T12:15:49.909Z,102991.52
2019-05-15T12:18:19.374Z,102989.55
2019-05-15T12:20:48.915Z,102989.55
2019-05-15T12:23:18.465Z,102991.14
2019-05-15T12:25:48.847Z,102999.97
2019-05-15T12:28:18.800Z,102997.74
2019-05-15T12:30:49.275Z,102992.86
2019-05-15T12:33:18.941Z,102993.11
2019-05-15T12:35:50.886Z,102995.44
2019-05-15T12:38:19.529Z,102999.18
2019-05-15T13:01:12.731Z,102981.57
2019-05-15T13:03:31.462Z,102980.16
2019-05-15T13:06:00.889Z,102974.68
2019-05-15T13:08:30.443Z,102970.02
2019-05-15T13:10:59.847Z,102975.16
2019-05-15T13:13:29.367Z,102972.09
2019-05-15T13:15:59.176Z,102972.48
2019-05-15T13:18:28.835Z,102960.94
2019-05-15T13:20:59.457Z,102960.94
2019-05-15T13:23:29.323Z,102957.70
2019-05-15T13:26:01.847Z,102962.57
2019-05-15T13:28:31.326Z,102960.77
2019-05-15T13:31:00.743Z,102959.05
2019-05-15T13:33:30.183Z,102955.16
2019-05-15T13:35:59.760Z,102955.65
2019-05-15T13:38:30.892Z,102957.23
2019-05-15T13:41:00.569Z,102953.78
2019-05-15T13:43:31.517Z,102950.31
2019-05-15T13:46:00.998Z,102946.81
2019-05-15T13:48:30.587Z,102942.30
2019-05-15T13:51:01.703Z,102941.36
2019-05-15T13:53:32.612Z,102941.47
2019-05-15T13:56:02.158Z,102935.09
2019-05-15T13:58:31.658Z,102933.60
2019-05-15T14:01:01.160Z,102929.52
2019-05-15T14:03:30.628Z,102930.30
2019-05-15T14:06:00.104Z,102932.84
2019-05-15T14:08:29.537Z,102924.98
2019-05-15T14:11:00.394Z,102909.67
2019-05-15T14:13:29.952Z,102911.98
2019-05-15T14:15:59.822Z,102913.10
2019-05-15T14:18:29.255Z,102907.72
2019-05-15T14:20:58.709Z,102904.73
2019-05-15T14:23:29.497Z,102897.31
2019-05-15T14:26:12.990Z,102891.07
2019-05-15T14:28:30.464Z,102893.86
2019-05-15T14:31:01.531Z,102895.98
2019-05-15T14:33:30.972Z,102895.79
2019-05-15T14:36:02.012Z,102892.12
2019-05-15T14:38:31.455Z,102892.55
2019-05-15T14:41:00.987Z,102895.26
2019-05-15T14:43:30.511Z,102885.17
2019-05-15T14:46:00.384Z,102885.84
2019-05-15T14:48:29.833Z,102892.86
2019-05-15T14:51:00.908Z,102890.70
2019-05-15T14:53:30.886Z,102877.73
2019-05-15T14:56:00.632Z,102881.78
2019-05-15T14:58:30.236Z,102881.47
2019-05-15T15:01:03.313Z,102872.45
2019-05-15T15:03:32.362Z,102882.27
2019-05-15T15:06:01.816Z,102872.45
2019-05-15T15:08:32.711Z,102874.78
2019-05-15T15:11:03.150Z,102883.80
2019-05-15T15:13:32.775Z,102868.59
2019-05-15T15:16:02.304Z,102855.39
2019-05-15T15:18:31.734Z,102855.29
2019-05-15T15:21:01.231Z,102852.77
2019-05-15T15:23:30.712Z,102858.57
2019-05-15T15:26:00.168Z,102857.34
2019-05-15T15:28:29.683Z,102853.56
2019-05-15T15:30:59.108Z,102853.94
2019-05-15T15:33:29.011Z,102841.44
2019-05-15T15:35:58.587Z,102844.25
2019-05-15T15:38:40.124Z,102847.47
2019-05-15T15:41:00.480Z,102848.26
2019-05-15T15:43:30.194Z,102836.65
2019-05-15T15:45:59.669Z,102837.30
2019-05-15T15:48:29.130Z,102832.16
2019-05-15T15:50:58.928Z,102838.19
2019-05-15T15:53:29.887Z,102827.34
2019-05-15T15:55:59.363Z,102825.42
2019-05-15T15:58:29.179Z,102827.91
2019-05-15T16:00:58.686Z,102819.98
2019-05-15T16:03:28.733Z,102819.56
2019-05-15T16:05:58.263Z,102824.27
2019-05-15T16:08:28.556Z,102823.75
2019-05-15T16:10:58.986Z,102812.42
2019-05-15T16:13:29.255Z,102823.08
2019-05-15T16:15:58.829Z,102817.58
2019-05-15T16:18:28.920Z,102820.57
2019-05-15T16:20:58.616Z,102815.16
2019-05-15T16:23:28.448Z,102814.70
2019-05-15T16:26:01.015Z,102818.60
2019-05-15T16:28:29.423Z,102808.27
2019-05-15T16:30:58.946Z,102805.40
2019-05-15T16:33:30.093Z,102806.75
2019-05-15T16:35:59.561Z,102810.35
2019-05-15T16:38:29.025Z,102810.42
2019-05-15T16:40:58.655Z,102811.47
2019-05-15T16:43:28.693Z,102799.98
2019-05-15T16:45:58.888Z,102799.09
2019-05-15T16:48:29.891Z,102798.73
2019-05-15T16:50:59.321Z,102797.30
2019-05-15T16:53:29.141Z,102797.19
2019-05-15T16:55:59.013Z,102798.34
2019-05-15T16:58:29.613Z,102798.39
2019-05-15T17:00:59.438Z,102795.17
2019-05-15T17:03:29.139Z,102794.38
2019-05-15T17:05:59.707Z,102795.13
2019-05-15T17:08:32.059Z,102800.85
2019-05-15T17:11:00.514Z,102805.60
2019-05-15T17:13:29.987Z,102802.13
2019-05-15T17:15:59.438Z,102802.03
2019-05-15T17:18:28.936Z,102800.47
2019-05-15T17:20:59.035Z,102804.59
2019-05-15T17:23:28.669Z,102799.39
2019-05-15T17:26:00.464Z,102799.48
2019-05-15T17:28:29.926Z,102805.91
2019-05-15T17:30:59.364Z,102807.94
2019-05-15T17:33:29.111Z,102806.64
2019-05-15T17:35:58.654Z,102803.16
2019-05-15T17:38:28.654Z,102799.57
2019-05-15T17:40:58.688Z,102805.05
2019-05-15T17:43:28.780Z,102804.25
2019-05-15T17:45:58.641Z,102803.55
2019-05-15T17:48:28.891Z,102801.98
2019-05-15T17:50:59.478Z,102801.89
2019-05-15T17:53:29.021Z,102799.98
2019-05-15T17:55:58.838Z,102796.66
2019-05-15T17:58:28.807Z,102795.04
2019-05-15T18:00:59.546Z,102793.08
2019-05-15T18:03:29.131Z,102797.03
2019-05-15T18:05:59.251Z,102790.70
2019-05-15T18:08:28.878Z,102796.45
2019-05-15T18:10:58.873Z,102796.13
2019-05-15T18:13:29.902Z,102796.86
2019-05-15T18:16:02.877Z,102793.63
2019-05-15T18:18:30.504Z,102793.75
2019-05-15T18:20:59.949Z,102801.36
2019-05-15T18:23:29.356Z,102799.20
2019-05-15T18:25:59.071Z,102796.61
2019-05-15T18:28:28.781Z,102801.83
2019-05-15T18:30:58.738Z,102805.33
2019-05-15T18:33:28.480Z,102796.63
2019-05-15T18:35:58.243Z,102804.18
2019-05-15T18:38:28.218Z,102807.28
2019-05-15T18:40:58.396Z,102805.13
2019-05-15T18:43:28.399Z,102810.94
2019-05-15T18:45:58.613Z,102808.80
2019-05-15T18:48:28.878Z,102809.75
2019-05-15T18:51:00.293Z,102811.53
2019-05-15T18:53:29.777Z,102805.92
2019-05-15T18:56:01.026Z,102813.44
2019-05-15T18:58:30.557Z,102805.22
2019-05-15T19:00:59.964Z,102801.91
2019-05-15T19:03:29.498Z,102807.17
2019-05-15T19:05:58.893Z,102806.86
2019-05-15T19:08:28.446Z,102809.25
2019-05-15T19:10:58.556Z,102815.05
2019-05-15T19:13:28.410Z,102810.38
2019-05-15T19:15:58.061Z,102808.33
2019-05-15T19:18:28.030Z,102804.43
2019-05-15T19:20:58.574Z,102812.00
2019-05-15T19:23:28.281Z,102804.68
2019-05-15T19:25:58.039Z,102808.27
2019-05-15T19:28:28.566Z,102810.13
2019-05-15T19:30:58.688Z,102809.72
2019-05-15T19:33:36.945Z,102813.71
2019-05-15T19:36:02.306Z,102814.62
2019-05-15T19:38:32.105Z,102813.33
2019-05-15T19:41:06.126Z,102818.16
2019-05-15T19:43:34.392Z,102816.48
2019-05-15T19:46:03.861Z,102818.30
2019-05-15T19:48:33.319Z,102816.63
2019-05-15T19:51:02.737Z,102810.58
2019-05-15T19:53:32.337Z,102816.27
2019-05-15T19:56:01.743Z,102812.77
2019-05-15T19:58:31.266Z,102813.66
2019-05-15T20:01:00.726Z,102818.50
2019-05-15T20:03:31.688Z,102810.66
2019-05-15T20:06:01.799Z,102817.70
2019-05-15T20:08:31.339Z,102809.89
2019-05-15T20:11:00.885Z,102808.20
2019-05-15T20:13:32.029Z,102809.97
2019-05-15T20:16:01.525Z,102813.05
2019-05-15T20:18:31.055Z,102813.55
2019-05-15T20:21:00.560Z,102814.83
2019-05-15T20:23:30.003Z,102808.32
2019-05-15T20:25:59.440Z,102806.16
2019-05-15T20:28:28.998Z,102812.69
2019-05-15T20:30:58.861Z,102805.75
2019-05-15T20:33:28.692Z,102809.23
2019-05-15T20:35:58.963Z,102805.33
2019-05-15T20:38:28.741Z,102802.27
2019-05-15T20:40:59.725Z,102794.42
2019-05-15T20:43:30.919Z,102795.30
2019-05-15T20:46:00.556Z,102795.76
2019-05-15T20:48:30.014Z,102793.14
2019-05-15T20:50:59.514Z,102787.06
2019-05-15T20:53:28.946Z,102793.13
2019-05-15T20:55:58.936Z,102790.95
2019-05-15T20:58:28.480Z,102792.71
2019-05-15T21:00:59.084Z,102789.67
2019-05-15T21:03:28.901Z,102781.81
2019-05-15T21:06:00.861Z,102779.66
2019-05-15T21:08:29.628Z,102784.00
2019-05-15T21:10:59.253Z,102782.25
2019-05-15T21:13:29.870Z,102783.11
2019-05-15T21:15:59.953Z,102779.16
2019-05-15T21:18:29.732Z,102770.86
2019-05-15T21:20:59.176Z,102772.16
2019-05-15T21:23:28.814Z,102769.55
2019-05-15T21:25:59.037Z,102765.61
2019-05-15T21:28:30.058Z,102770.42
2019-05-15T21:30:59.691Z,102764.73
2019-05-15T21:33:29.507Z,102767.30
2019-05-15T21:35:59.028Z,102765.54
2019-05-15T21:38:28.555Z,102760.75
2019-05-15T21:40:58.594Z,102763.38
2019-05-15T21:43:28.287Z,102759.02
2019-05-15T21:45:59.102Z,102753.36
2019-05-15T21:48:28.931Z,102751.64
2019-05-15T21:50:58.773Z,102758.14
2019-05-15T21:53:28.855Z,102749.45
2019-05-15T21:55:58.968Z,102759.91
2019-05-15T21:58:30.006Z,102755.15
2019-05-15T22:00:59.853Z,102754.27
2019-05-15T22:03:30.150Z,102749.48
2019-05-15T22:06:00.039Z,102746.50
2019-05-15T22:08:29.571Z,102745.61
2019-05-15T22:10:59.028Z,102742.58
2019-05-15T22:13:31.539Z,102742.17
2019-05-15T22:15:59.802Z,102739.57
2019-05-15T22:18:29.459Z,102730.84
2019-05-15T22:20:58.966Z,102735.62
2019-05-15T22:23:28.511Z,102729.99
2019-05-15T22:25:58.543Z,102728.67
2019-05-15T22:28:28.380Z,102731.74
2019-05-15T22:30:58.530Z,102725.23
2019-05-15T22:33:28.724Z,102724.37
2019-05-15T22:35:59.307Z,102727.88
2019-05-15T22:38:29.179Z,102720.48
2019-05-15T22:40:58.626Z,102720.47
2019-05-15T22:43:28.807Z,102717.00
2019-05-15T22:45:59.970Z,102714.39
2019-05-15T22:48:29.418Z,102704.83
2019-05-15T22:50:59.803Z,102704.41
2019-05-15T22:53:29.510Z,102699.18
2019-05-15T22:55:59.016Z,102700.49
2019-05-15T22:58:28.528Z,102701.36
2019-05-15T23:00:59.883Z,102695.25
2019-05-15T23:03:29.430Z,102695.27
2019-05-15T23:05:58.956Z,102702.19
2019-05-15T23:08:29.024Z,102698.72
2019-05-15T23:10:58.916Z,102692.62
2019-05-15T23:13:28.784Z,102697.87
2019-05-15T23:15:58.547Z,102693.06
2019-05-15T23:18:28.149Z,102686.08
2019-05-15T23:20:59.424Z,102681.72
2019-05-15T23:23:28.977Z,102677.36
2019-05-15T23:25:58.788Z,102680.80
2019-05-15T23:28:28.295Z,102678.18
2019-05-15T23:30:57.824Z,102678.64
2019-05-15T23:33:28.285Z,102676.07
2019-05-15T23:35:58.695Z,102675.66
2019-05-15T23:38:28.264Z,102674.37
2019-05-15T23:40:58.947Z,102671.35
2019-05-15T23:43:28.561Z,102676.55
2019-05-15T23:45:58.925Z,102677.44
2019-05-15T23:48:28.588Z,102672.65
2019-05-15T23:50:59.127Z,102676.55
2019-05-15T23:53:29.020Z,102667.43
2019-05-15T23:55:58.999Z,102665.69
2019-05-15T23:58:29.355Z,102663.95
